Time;durP1;ratioP1;P1;durP2;ratioP2;P2;SDS_P1;SDS_P2;PMS_P1;PMS_P2;Temp;Humidity;BMP_temperature;BMP_pressure;BME280_temperature;BME280_humidity;BME280_pressure;Samples;Min_cycle;Max_cycle;Signal;HPM_P1;HPM_P2
2021/05/17 00:02:15;;;;;;;2.03;1.38;;;;;;;;;;5094412;28;20028;-79
2021/05/17 00:04:42;;;;;;;2.30;0.80;;;;;;;;;;5094600;28;20031;-78
2021/05/17 00:07:09;;;;;;;1.08;0.68;;;;;;;;;;5094578;28;20081;-77
2021/05/17 00:09:35;;;;;;;2.38;1.23;;;;;;;;;;5094212;28;20111;-78
2021/05/17 00:12:01;;;;;;;1.13;0.65;;;;;;;;;;5094347;28;20063;-78
2021/05/17 00:14:28;;;;;;;2.10;0.77;;;;;;;;;;5094376;28;20050;-79
2021/05/17 00:16:55;;;;;;;2.67;0.70;;;;;;;;;;5094146;28;20032;-78
2021/05/17 00:19:21;;;;;;;1.80;0.95;;;;;;;;;;5094298;28;20024;-78
2021/05/17 00:21:48;;;;;;;2.20;0.65;;;;;;;;;;5094003;28;20035;-77
2021/05/17 00:24:15;;;;;;;2.47;0.82;;;;;;;;;;5093826;28;20127;-78
2021/05/17 00:26:41;;;;;;;1.92;0.70;;;;;;;;;;5093994;28;20536;-78
2021/05/17 00:29:09;;;;;;;1.77;0.75;;;;;;;;;;5093920;28;20028;-78
2021/05/17 00:31:36;;;;;;;2.97;0.70;;;;;;;;;;5094056;28;20423;-77
2021/05/17 00:34:02;;;;;;;0.70;0.70;;;;;;;;;;5093837;28;20032;-78
2021/05/17 00:36:30;;;;;;;2.35;0.55;;;;;;;;;;5093851;28;20497;-77
2021/05/17 00:38:57;;;;;;;1.92;0.95;;;;;;;;;;5093887;28;20572;-78
2021/05/17 00:41:23;;;;;;;1.17;0.60;;;;;;;;;;5093795;28;20486;-78
2021/05/17 00:43:52;;;;;;;2.90;0.70;;;;;;;;;;5093850;28;20036;-78
2021/05/17 00:46:19;;;;;;;2.00;0.60;;;;;;;;;;5093724;28;20111;-77
2021/05/17 00:48:45;;;;;;;1.25;0.57;;;;;;;;;;5093811;28;20375;-78
2021/05/17 00:51:11;;;;;;;2.53;1.00;;;;;;;;;;5093641;28;20036;-78
2021/05/17 00:53:38;;;;;;;1.70;0.60;;;;;;;;;;5093615;28;20016;-78
2021/05/17 00:56:05;;;;;;;1.27;0.63;;;;;;;;;;5093590;28;20024;-78
2021/05/17 00:58:32;;;;;;;1.02;0.65;;;;;;;;;;5093633;28;20021;-78
2021/05/17 01:00:58;;;;;;;1.10;0.60;;;;;;;;;;5093644;28;20020;-78
2021/05/17 01:03:24;;;;;;;2.75;0.70;;;;;;;;;;5092256;28;20032;-77
2021/05/17 01:05:51;;;;;;;1.73;0.50;;;;;;;;;;5093555;28;20035;-77
2021/05/17 01:08:25;;;;;;;1.00;0.65;;;;;;;;;;5093293;28;20032;-77
2021/05/17 01:10:54;;;;;;;1.15;0.60;;;;;;;;;;5093426;28;20032;-78
2021/05/17 01:13:20;;;;;;;1.50;0.80;;;;;;;;;;5093357;28;20532;-78
2021/05/17 01:15:50;;;;;;;1.45;0.60;;;;;;;;;;5093374;28;20054;-77
2021/05/17 01:18:17;;;;;;;2.72;0.80;;;;;;;;;;5093522;28;20070;-78
2021/05/17 01:20:45;;;;;;;1.77;0.60;;;;;;;;;;5093393;28;20085;-78
2021/05/17 01:25:58;;;;;;;1.73;0.80;;;;;;;;;;5093442;28;20039;-78
2021/05/17 01:28:27;;;;;;;2.10;0.90;;;;;;;;;;5093316;28;20030;-77
2021/05/17 01:30:54;;;;;;;2.17;0.70;;;;;;;;;;5093246;28;20040;-78
2021/05/17 01:33:21;;;;;;;1.67;0.70;;;;;;;;;;5093217;28;20035;-78
2021/05/17 01:35:50;;;;;;;2.38;1.17;;;;;;;;;;5091902;28;20391;-78
2021/05/17 01:38:19;;;;;;;3.75;1.60;;;;;;;;;;5093249;28;20498;-78
2021/05/17 01:40:46;;;;;;;2.22;0.90;;;;;;;;;;5093262;28;20099;-78
2021/05/17 01:43:13;;;;;;;1.30;0.68;;;;;;;;;;5093072;28;20450;-78
2021/05/17 01:45:39;;;;;;;2.28;0.73;;;;;;;;;;5093061;28;20074;-79
2021/05/17 01:48:06;;;;;;;1.95;1.00;;;;;;;;;;5093067;28;20020;-78
2021/05/17 01:50:33;;;;;;;1.20;0.50;;;;;;;;;;5092996;28;20483;-78
2021/05/17 01:53:00;;;;;;;1.05;0.63;;;;;;;;;;5093090;28;20056;-78
2021/05/17 01:55:28;;;;;;;0.75;0.43;;;;;;;;;;5093279;28;20420;-78
2021/05/17 01:58:13;;;;;;;1.30;0.60;;;;;;;;;;5077453;28;20040;-78
2021/05/17 02:00:40;;;;;;;2.60;0.60;;;;;;;;;;5096868;28;20375;-78
2021/05/17 02:03:08;;;;;;;1.70;0.98;;;;;;;;;;5096615;28;20131;-78
2021/05/17 02:05:34;;;;;;;2.03;1.20;;;;;;;;;;5096846;28;20024;-78
2021/05/17 02:08:02;;;;;;;5.15;2.83;;;;;;;;;;5096661;28;20035;-78
2021/05/17 02:10:28;;;;;;;2.45;1.48;;;;;;;;;;5096659;28;20032;-79
2021/05/17 02:12:56;;;;;;;2.17;0.98;;;;;;;;;;5096592;28;20024;-78
2021/05/17 02:15:23;;;;;;;2.50;0.93;;;;;;;;;;5096522;28;20024;-77
2021/05/17 02:18:07;;;;;;;1.50;0.63;;;;;;;;;;5096574;28;20032;-78
2021/05/17 02:20:34;;;;;;;;;;;;;;;;;;5096909;28;20016;-78
2021/05/17 02:23:01;;;;;;;3.28;0.60;;;;;;;;;;5094959;28;19916;-78
2021/05/17 02:25:28;;;;;;;1.67;0.77;;;;;;;;;;5095094;28;20032;-78
2021/05/17 02:27:55;;;;;;;2.30;0.85;;;;;;;;;;5096543;28;20060;-77
2021/05/17 02:30:21;;;;;;;1.30;0.88;;;;;;;;;;5096314;28;20042;-79
2021/05/17 02:32:48;;;;;;;4.10;1.25;;;;;;;;;;5095640;28;20425;-78
2021/05/17 02:35:14;;;;;;;4.05;1.60;;;;;;;;;;5096133;28;20391;-77
2021/05/17 02:37:40;;;;;;;2.67;1.17;;;;;;;;;;5096075;28;20431;-77
2021/05/17 02:40:07;;;;;;;2.83;0.90;;;;;;;;;;5096012;28;20446;-78
2021/05/17 02:42:37;;;;;;;5.32;2.67;;;;;;;;;;5095887;28;20032;-77
2021/05/17 02:45:05;;;;;;;2.30;1.02;;;;;;;;;;5095980;28;20395;-78
2021/05/17 02:47:35;;;;;;;4.07;2.17;;;;;;;;;;5094621;28;20028;-78
2021/05/17 02:50:02;;;;;;;2.65;2.05;;;;;;;;;;5095600;28;20391;-77
2021/05/17 02:52:31;;;;;;;4.05;1.50;;;;;;;;;;5095816;28;20081;-78
2021/05/17 02:55:16;;;;;;;4.28;1.80;;;;;;;;;;5096089;28;20028;-78
2021/05/17 02:57:42;;;;;;;2.55;1.00;;;;;;;;;;5095739;28;20066;-78
2021/05/17 03:00:16;;;;;;;1.60;0.70;;;;;;;;;;5095641;28;20065;-78
2021/05/17 03:03:01;;;;;;;1.92;0.77;;;;;;;;;;5095733;28;20032;-77
2021/05/17 03:05:28;;;;;;;1.60;0.65;;;;;;;;;;5095825;28;20389;-79
2021/05/17 03:08:03;;;;;;;1.85;0.75;;;;;;;;;;5094079;28;20024;-78
2021/05/17 03:10:30;;;;;;;1.55;0.85;;;;;;;;;;5095461;28;20039;-77
2021/05/17 03:12:57;;;;;;;1.33;0.60;;;;;;;;;;5095757;28;20027;-77
2021/05/17 03:15:42;;;;;;;7.97;1.13;;;;;;;;;;5095956;28;20028;-77
2021/05/17 03:18:09;;;;;;;2.08;0.77;;;;;;;;;;5095873;28;20531;-78
2021/05/17 03:20:36;;;;;;;3.70;1.50;;;;;;;;;;5095501;28;20486;-78
2021/05/17 03:23:06;;;;;;;4.00;1.55;;;;;;;;;;5095260;28;20052;-77
2021/05/17 03:25:33;;;;;;;1.75;0.80;;;;;;;;;;5095336;28;20034;-78
2021/05/17 03:27:59;;;;;;;4.63;1.25;;;;;;;;;;5095404;28;20052;-77
2021/05/17 03:30:25;;;;;;;2.63;1.05;;;;;;;;;;5095312;28;20032;-77
2021/05/17 03:33:05;;;;;;;2.53;1.00;;;;;;;;;;5123089;27;940522;-78
2021/05/17 03:35:31;;;;;;;2.67;0.80;;;;;;;;;;5132012;28;20381;-77
2021/05/17 03:37:58;;;;;;;2.45;1.30;;;;;;;;;;5131745;28;20027;-77
2021/05/17 03:40:24;;;;;;;3.15;1.58;;;;;;;;;;5132068;28;20382;-78
2021/05/17 03:42:50;;;;;;;1.65;1.10;;;;;;;;;;5131839;28;20025;-77
2021/05/17 03:45:16;;;;;;;3.28;1.38;;;;;;;;;;5131700;28;20027;-78
2021/05/17 03:47:43;;;;;;;2.65;1.45;;;;;;;;;;5131790;28;20462;-76
2021/05/17 03:50:10;;;;;;;3.58;1.23;;;;;;;;;;5131508;28;20028;-78
2021/05/17 03:52:36;;;;;;;4.18;1.50;;;;;;;;;;5131483;28;20034;-77
2021/05/17 03:55:03;;;;;;;2.15;1.02;;;;;;;;;;5131361;28;20024;-77
2021/05/17 03:57:30;;;;;;;4.80;1.65;;;;;;;;;;5131480;28;20019;-78
2021/05/17 03:59:56;;;;;;;3.60;1.30;;;;;;;;;;5131262;28;20023;-78
2021/05/17 04:02:24;;;;;;;2.65;1.10;;;;;;;;;;5131393;28;20019;-77
2021/05/17 04:15:50;;;;;;;2.08;1.05;;;;;;;;;;5131082;28;20042;-78
2021/05/17 04:18:16;;;;;;;5.57;1.33;;;;;;;;;;5130924;27;20087;-78
2021/05/17 04:20:43;;;;;;;2.08;0.88;;;;;;;;;;5131082;27;20494;-77
2021/05/17 04:23:09;;;;;;;4.38;1.40;;;;;;;;;;5131032;28;20023;-78
2021/05/17 04:25:35;;;;;;;2.03;1.10;;;;;;;;;;5130862;28;20149;-78
2021/05/17 04:28:02;;;;;;;4.57;1.80;;;;;;;;;;5129304;28;20035;-78
2021/05/17 04:30:28;;;;;;;3.55;1.05;;;;;;;;;;5128045;28;20096;-79
2021/05/17 04:32:54;;;;;;;2.80;1.20;;;;;;;;;;5118834;28;20051;-79
2021/05/17 04:35:21;;;;;;;1.80;1.27;;;;;;;;;;5108874;28;20028;-78
2021/05/17 04:37:49;;;;;;;2.78;0.85;;;;;;;;;;5124453;28;20565;-78
2021/05/17 04:40:15;;;;;;;2.88;1.00;;;;;;;;;;5130739;28;20020;-78
2021/05/17 04:42:45;;;;;;;3.00;1.10;;;;;;;;;;5126831;28;20023;-79
2021/05/17 04:45:12;;;;;;;2.38;1.27;;;;;;;;;;5117211;28;20517;-78
2021/05/17 04:47:39;;;;;;;2.30;1.08;;;;;;;;;;5115618;28;20386;-77
2021/05/17 04:50:06;;;;;;;2.78;1.20;;;;;;;;;;5098768;28;20088;-77
2021/05/17 04:52:33;;;;;;;3.97;2.10;;;;;;;;;;5115403;28;20126;-77
2021/05/17 04:55:09;;;;;;;3.42;1.60;;;;;;;;;;5115141;28;20023;-77
2021/05/17 04:57:39;;;;;;;4.00;1.10;;;;;;;;;;5111380;28;20447;-75
2021/05/17 05:00:07;;;;;;;2.72;1.20;;;;;;;;;;5110313;28;20030;-76
2021/05/17 05:02:33;;;;;;;1.92;1.40;;;;;;;;;;5094984;28;20028;-77
2021/05/17 05:04:59;;;;;;;2.92;1.48;;;;;;;;;;5096046;28;20035;-76
2021/05/17 05:07:25;;;;;;;3.05;1.67;;;;;;;;;;5098922;28;20051;-76
2021/05/17 05:09:51;;;;;;;7.00;2.40;;;;;;;;;;5095831;28;20028;-76
2021/05/17 05:12:17;;;;;;;4.30;2.10;;;;;;;;;;5096025;28;20036;-76
2021/05/17 05:14:43;;;;;;;3.20;2.03;;;;;;;;;;5096193;28;20485;-77
2021/05/17 05:17:10;;;;;;;3.95;1.98;;;;;;;;;;5098072;28;20458;-76
2021/05/17 05:19:36;;;;;;;4.10;2.47;;;;;;;;;;5116162;28;20030;-76
2021/05/17 05:22:02;;;;;;;12.88;2.53;;;;;;;;;;5115543;28;20435;-77
2021/05/17 05:24:28;;;;;;;4.85;2.70;;;;;;;;;;5115599;28;20038;-76
2021/05/17 05:34:49;;;;;;;;;;;;;;;;;;5095709;28;19911;-77
2021/05/17 05:37:15;;;;;;;4.88;2.20;;;;;;;;;;5113865;28;19903;-77
2021/05/17 05:39:42;;;;;;;5.68;3.47;;;;;;;;;;5103553;28;20039;-76
2021/05/17 05:42:08;;;;;;;5.10;3.30;;;;;;;;;;5101963;28;20038;-77
2021/05/17 05:44:42;;;;;;;4.85;2.03;;;;;;;;;;5113524;28;20028;-77
2021/05/17 05:47:10;;;;;;;2.75;1.80;;;;;;;;;;5114171;28;20027;-79
2021/05/17 05:49:37;;;;;;;4.53;2.03;;;;;;;;;;5114375;28;20046;-79
2021/05/17 05:52:03;;;;;;;3.65;2.58;;;;;;;;;;5114553;28;20034;-77
2021/05/17 05:54:29;;;;;;;6.28;3.70;;;;;;;;;;5112601;28;20107;-79
2021/05/17 05:56:55;;;;;;;3.17;2.22;;;;;;;;;;5114596;28;20031;-77
2021/05/17 05:59:21;;;;;;;3.08;2.08;;;;;;;;;;5113851;28;20451;-77
2021/05/17 06:01:47;;;;;;;7.20;2.58;;;;;;;;;;5113535;28;20032;-78
2021/05/17 06:04:14;;;;;;;5.70;2.58;;;;;;;;;;5109753;28;20031;-79
2021/05/17 06:06:40;;;;;;;4.72;2.25;;;;;;;;;;5112343;28;20028;-79
2021/05/17 06:09:06;;;;;;;5.75;2.38;;;;;;;;;;5112285;28;20027;-85
2021/05/17 06:11:32;;;;;;;4.55;2.00;;;;;;;;;;5112193;28;20447;-79
2021/05/17 06:14:00;;;;;;;2.70;1.73;;;;;;;;;;5112400;28;20142;-78
2021/05/17 06:16:26;;;;;;;3.20;1.65;;;;;;;;;;5112411;27;20108;-79
2021/05/17 06:18:54;;;;;;;60.58;36.78;;;;;;;;;;5111931;28;20028;-77
2021/05/17 06:21:21;;;;;;;6.28;3.88;;;;;;;;;;5112667;28;20371;-81
2021/05/17 06:23:47;;;;;;;4.95;3.13;;;;;;;;;;5112363;28;20070;-79
2021/05/17 06:26:14;;;;;;;3.33;2.00;;;;;;;;;;5095047;28;20035;-79
2021/05/17 06:28:40;;;;;;;3.33;2.35;;;;;;;;;;5092010;28;20031;-77
2021/05/17 06:31:07;;;;;;;4.72;2.53;;;;;;;;;;5091981;28;20099;-78
2021/05/17 06:33:35;;;;;;;3.95;2.60;;;;;;;;;;5109405;28;20038;-78
2021/05/17 06:36:01;;;;;;;4.85;2.60;;;;;;;;;;5112459;28;20467;-79
2021/05/17 06:38:30;;;;;;;4.10;2.15;;;;;;;;;;5096430;28;20050;-77
2021/05/17 06:40:56;;;;;;;4.65;2.35;;;;;;;;;;5092216;28;20036;-76
2021/05/17 06:43:23;;;;;;;5.10;2.22;;;;;;;;;;5112355;28;20111;-82
2021/05/17 06:45:49;;;;;;;7.50;2.10;;;;;;;;;;5111723;28;20068;-78
2021/05/17 06:48:16;;;;;;;4.82;2.35;;;;;;;;;;5112546;28;20024;-84
2021/05/17 06:50:42;;;;;;;3.92;1.85;;;;;;;;;;5112501;28;20035;-78
2021/05/17 06:53:09;;;;;;;4.28;1.90;;;;;;;;;;5104839;28;20039;-80
2021/05/17 06:55:47;;;;;;;3.33;1.88;;;;;;;;;;5091268;28;20035;-82
2021/05/17 07:00:39;;;;;;;3.03;2.10;;;;;;;;;;5091371;28;20825;-83
2021/05/17 07:03:07;;;;;;;4.80;2.60;;;;;;;;;;5090342;28;20111;-78
2021/05/17 07:05:34;;;;;;;5.07;2.60;;;;;;;;;;5091116;28;20024;-79
2021/05/17 07:13:15;;;;;;;4.10;2.45;;;;;;;;;;5091398;28;20054;-77
2021/05/17 07:15:41;;;;;;;3.85;2.75;;;;;;;;;;5090837;28;20047;-77
2021/05/17 07:18:08;;;;;;;3.83;1.80;;;;;;;;;;5091360;28;20039;-77
2021/05/17 07:23:37;;;;;;;3.30;2.00;;;;;;;;;;5090910;28;20510;-76
2021/05/17 07:26:08;;;;;;;10.60;7.43;;;;;;;;;;5091105;28;20093;-81
2021/05/17 07:28:35;;;;;;;4.22;1.58;;;;;;;;;;5090760;28;20081;-80
2021/05/17 07:31:04;;;;;;;4.75;2.35;;;;;;;;;;5090690;28;20035;-78
2021/05/17 07:33:30;;;;;;;6.03;2.22;;;;;;;;;;5090947;28;20032;-85
2021/05/17 07:35:56;;;;;;;4.43;1.38;;;;;;;;;;5091334;28;20688;-72
2021/05/17 07:38:27;;;;;;;2.00;1.27;;;;;;;;;;5101279;28;20475;-78
2021/05/17 07:40:53;;;;;;;8.38;1.80;;;;;;;;;;5090644;28;20471;-84
2021/05/17 07:43:20;;;;;;;1.80;0.70;;;;;;;;;;5091132;28;20024;-79
2021/05/17 07:45:46;;;;;;;2.53;1.25;;;;;;;;;;5090523;28;20024;-78
2021/05/17 07:48:13;;;;;;;1.73;0.82;;;;;;;;;;5090750;28;20487;-79
2021/05/17 07:50:39;;;;;;;3.38;1.45;;;;;;;;;;5090656;28;20135;-78
2021/05/17 07:53:05;;;;;;;2.13;0.82;;;;;;;;;;5097151;28;20035;-80
2021/05/17 07:55:31;;;;;;;3.78;1.10;;;;;;;;;;5111002;28;20073;-79
2021/05/17 07:57:57;;;;;;;10.43;2.78;;;;;;;;;;5105223;28;20041;-78
2021/05/17 08:00:24;;;;;;;1.60;0.88;;;;;;;;;;5106448;28;20488;-83
2021/05/17 08:02:50;;;;;;;6.47;2.75;;;;;;;;;;5090435;28;20390;-80
2021/05/17 08:05:17;;;;;;;2.88;1.00;;;;;;;;;;5108238;28;20047;-80
2021/05/17 08:07:43;;;;;;;2.00;0.85;;;;;;;;;;5110768;28;20073;-80
2021/05/17 08:10:11;;;;;;;4.35;1.38;;;;;;;;;;5109717;28;20028;-78
2021/05/17 08:12:37;;;;;;;4.35;1.30;;;;;;;;;;5111134;28;20032;-76
2021/05/17 08:15:07;;;;;;;3.33;1.05;;;;;;;;;;5111211;28;20032;-79
2021/05/17 08:17:33;;;;;;;2.22;0.80;;;;;;;;;;5110836;28;20092;-76
2021/05/17 08:20:00;;;;;;;3.35;0.77;;;;;;;;;;5114426;28;20035;-76
2021/05/17 08:22:26;;;;;;;1.95;1.10;;;;;;;;;;5113719;28;20051;-77
2021/05/17 08:24:55;;;;;;;2.97;0.77;;;;;;;;;;5114465;28;20034;-77
2021/05/17 08:27:21;;;;;;;2.28;0.50;;;;;;;;;;5114752;28;20398;-79
2021/05/17 08:29:47;;;;;;;1.52;0.70;;;;;;;;;;5114188;28;20039;-77
2021/05/17 08:32:13;;;;;;;1.02;0.55;;;;;;;;;;5114285;28;20054;-78
2021/05/17 08:34:39;;;;;;;2.85;1.15;;;;;;;;;;5106855;28;20032;-80
2021/05/17 08:37:06;;;;;;;4.72;1.50;;;;;;;;;;5109519;28;20027;-77
2021/05/17 08:39:32;;;;;;;5.40;2.05;;;;;;;;;;5094215;28;20035;-78
2021/05/17 08:41:59;;;;;;;15.20;3.13;;;;;;;;;;5096170;28;20171;-77
2021/05/17 08:44:27;;;;;;;5.45;1.17;;;;;;;;;;5114427;28;20055;-77
2021/05/17 08:46:53;;;;;;;2.30;1.02;;;;;;;;;;5107277;28;20387;-76
2021/05/17 08:49:19;;;;;;;5.00;1.55;;;;;;;;;;5114204;28;20028;-77
2021/05/17 08:51:46;;;;;;;3.00;1.60;;;;;;;;;;5113916;28;20132;-78
2021/05/17 08:54:13;;;;;;;4.57;1.10;;;;;;;;;;5103375;28;20113;-78
2021/05/17 08:56:58;;;;;;;3.22;1.55;;;;;;;;;;5102140;28;20028;-80
2021/05/17 08:59:24;;;;;;;4.53;1.30;;;;;;;;;;5114170;28;20079;-78
2021/05/17 09:01:50;;;;;;;4.35;1.40;;;;;;;;;;5113643;28;20028;-76
2021/05/17 09:04:17;;;;;;;3.70;1.60;;;;;;;;;;5114096;28;20491;-78
2021/05/17 09:06:53;;;;;;;1.85;0.65;;;;;;;;;;5114084;28;20382;-77
2021/05/17 09:09:32;;;;;;;2.40;0.60;;;;;;;;;;5101382;28;20027;-77
2021/05/17 09:12:10;;;;;;;2.85;0.90;;;;;;;;;;5093300;28;20061;-76
2021/05/17 09:14:36;;;;;;;2.30;0.80;;;;;;;;;;5107242;28;20449;-79
2021/05/17 09:17:04;;;;;;;7.88;1.00;;;;;;;;;;5112685;28;20023;-77
2021/05/17 09:19:32;;;;;;;2.70;0.88;;;;;;;;;;5114238;27;20030;-76
2021/05/17 09:22:00;;;;;;;2.90;0.90;;;;;;;;;;5113278;28;20370;-77
2021/05/17 09:24:46;;;;;;;2.33;0.47;;;;;;;;;;5112061;28;20031;-78
2021/05/17 09:27:17;;;;;;;4.90;1.08;;;;;;;;;;5095955;28;20578;-77
2021/05/17 09:29:44;;;;;;;1.52;0.88;;;;;;;;;;5092820;28;20024;-76
2021/05/17 09:32:21;;;;;;;1.45;0.68;;;;;;;;;;5113027;28;20040;-78
2021/05/17 09:35:02;;;;;;;7.68;2.30;;;;;;;;;;5113591;28;20034;-77
2021/05/17 09:37:41;;;;;;;1.77;0.75;;;;;;;;;;5099386;28;20356;-77
2021/05/17 09:40:16;;;;;;;3.95;0.98;;;;;;;;;;5092652;28;20043;-76
2021/05/17 09:42:42;;;;;;;4.57;0.93;;;;;;;;;;5092886;28;20024;-80
2021/05/17 09:45:13;;;;;;;3.90;1.08;;;;;;;;;;5099843;28;20493;-77
2021/05/17 09:47:39;;;;;;;5.65;1.42;;;;;;;;;;5094537;28;20020;-77
2021/05/17 09:50:05;;;;;;;8.10;1.15;;;;;;;;;;5092637;28;20487;-76
2021/05/17 09:52:33;;;;;;;20.45;2.55;;;;;;;;;;5104827;28;20130;-77
2021/05/17 09:55:07;;;;;;;8.90;1.83;;;;;;;;;;5092915;28;20398;-79
2021/05/17 09:57:37;;;;;;;3.63;0.80;;;;;;;;;;5096409;28;20035;-79
2021/05/17 10:00:09;;;;;;;3.53;0.80;;;;;;;;;;5112883;28;20096;-77
2021/05/17 10:02:37;;;;;;;7.75;1.25;;;;;;;;;;5112845;28;20343;-78
2021/05/17 10:05:21;;;;;;;7.65;3.97;;;;;;;;;;5108583;28;20024;-78
2021/05/17 10:07:49;;;;;;;1.58;0.68;;;;;;;;;;5111757;28;20023;-79
2021/05/17 10:10:16;;;;;;;1.65;0.63;;;;;;;;;;5112345;28;20028;-78
2021/05/17 10:12:43;;;;;;;5.03;0.70;;;;;;;;;;5112168;28;20027;-77
2021/05/17 10:15:11;;;;;;;3.08;0.60;;;;;;;;;;5112328;28;20142;-78
2021/05/17 10:17:37;;;;;;;2.53;1.02;;;;;;;;;;5112562;28;20187;-77
2021/05/17 10:20:05;;;;;;;2.17;1.00;;;;;;;;;;5112650;28;20379;-78
2021/05/17 10:22:31;;;;;;;5.35;1.10;;;;;;;;;;5111779;28;20111;-76
2021/05/17 10:24:58;;;;;;;7.57;3.95;;;;;;;;;;5109293;28;20131;-70
2021/05/17 10:27:25;;;;;;;12.65;1.50;;;;;;;;;;5111700;28;20024;-78
2021/05/17 10:29:52;;;;;;;4.68;0.93;;;;;;;;;;5099180;28;20035;-78
2021/05/17 10:32:18;;;;;;;2.72;1.00;;;;;;;;;;5100262;28;20044;-79
2021/05/17 10:34:47;;;;;;;2.90;0.70;;;;;;;;;;5091712;28;20028;-78
2021/05/17 10:37:21;;;;;;;3.58;1.30;;;;;;;;;;5091099;28;20107;-77
2021/05/17 10:39:55;;;;;;;4.47;1.17;;;;;;;;;;5092170;28;20031;-78
2021/05/17 10:47:50;;;;;;;1.92;0.80;;;;;;;;;;5091680;28;20136;-78
2021/05/17 10:50:18;;;;;;;2.22;0.50;;;;;;;;;;5094581;28;20051;-79
2021/05/17 10:52:44;;;;;;;8.23;0.90;;;;;;;;;;5099679;28;20058;-78
2021/05/17 10:55:19;;;;;;;4.05;0.65;;;;;;;;;;5093441;28;20032;-80
2021/05/17 11:00:30;;;;;;;5.25;0.80;;;;;;;;;;5090713;28;20423;-78
2021/05/17 11:03:15;;;;;;;15.45;1.70;;;;;;;;;;5091183;28;20051;-79
2021/05/17 11:05:45;;;;;;;3.72;0.73;;;;;;;;;;5110755;28;20023;-79
2021/05/17 11:08:13;;;;;;;6.25;1.00;;;;;;;;;;5108320;28;20023;-77
2021/05/17 11:11:00;;;;;;;2.95;1.08;;;;;;;;;;5110839;28;20039;-77
2021/05/17 11:13:30;;;;;;;6.63;1.05;;;;;;;;;;5109757;28;20126;-78
2021/05/17 11:15:57;;;;;;;3.25;0.70;;;;;;;;;;5100816;28;20020;-79
2021/05/17 11:18:29;;;;;;;7.93;5.65;;;;;;;;;;5101494;28;20509;-78
2021/05/17 11:20:57;;;;;;;10.70;1.40;;;;;;;;;;5090853;28;20458;-79
2021/05/17 11:23:23;;;;;;;8.10;2.00;;;;;;;;;;5094593;28;20116;-79
2021/05/17 11:25:53;;;;;;;4.75;1.27;;;;;;;;;;5111414;28;20020;-79
2021/05/17 11:28:40;;;;;;;4.45;0.70;;;;;;;;;;5102542;28;20060;-78
2021/05/17 11:31:14;;;;;;;17.67;3.25;;;;;;;;;;5090404;28;20028;-78
2021/05/17 11:33:59;;;;;;;4.82;1.05;;;;;;;;;;5090839;28;20126;-78
2021/05/17 11:36:34;;;;;;;2.92;0.60;;;;;;;;;;5091390;28;20420;-78
2021/05/17 11:44:59;;;;;;;10.00;8.43;;;;;;;;;;5091293;28;20035;-78
2021/05/17 11:47:30;;;;;;;6.90;2.55;;;;;;;;;;5106734;28;20031;-76
2021/05/17 11:49:56;;;;;;;5.45;1.60;;;;;;;;;;5105165;28;20024;-76
2021/05/17 11:52:24;;;;;;;5.10;1.35;;;;;;;;;;5110069;28;20032;-79
2021/05/17 11:54:51;;;;;;;4.25;0.70;;;;;;;;;;5114601;28;20031;-79
2021/05/17 11:57:21;;;;;;;4.25;1.77;;;;;;;;;;5115392;28;20027;-78
2021/05/17 11:59:49;;;;;;;5.30;2.35;;;;;;;;;;5114984;28;20176;-78
2021/05/17 12:02:15;;;;;;;4.07;2.33;;;;;;;;;;5108556;28;20032;-78
2021/05/17 12:04:42;;;;;;;1.95;0.70;;;;;;;;;;5108330;28;20025;-76
2021/05/17 12:07:09;;;;;;;3.65;2.00;;;;;;;;;;5103586;28;20027;-76
2021/05/17 12:09:39;;;;;;;6.85;2.00;;;;;;;;;;5094324;28;20505;-80
2021/05/17 12:12:09;;;;;;;3.70;1.30;;;;;;;;;;5094495;28;20039;-77
2021/05/17 12:14:36;;;;;;;7.53;1.23;;;;;;;;;;5096055;28;20610;-77
2021/05/17 12:17:04;;;;;;;5.90;0.88;;;;;;;;;;5103645;28;20031;-76
2021/05/17 12:19:30;;;;;;;1.45;0.60;;;;;;;;;;5094427;28;20032;-78
2021/05/17 12:22:03;;;;;;;8.10;1.00;;;;;;;;;;5094270;28;20032;-78
2021/05/17 12:24:30;;;;;;;3.00;1.17;;;;;;;;;;5101238;28;20066;-78
2021/05/17 12:26:58;;;;;;;8.07;3.22;;;;;;;;;;5098132;28;20107;-79
2021/05/17 12:29:25;;;;;;;4.93;3.92;;;;;;;;;;5094198;28;20024;-79
2021/05/17 12:31:51;;;;;;;4.20;2.33;;;;;;;;;;5098415;28;20055;-77
2021/05/17 12:34:18;;;;;;;2.90;1.00;;;;;;;;;;5097440;28;20047;-78
2021/05/17 12:36:44;;;;;;;12.27;2.40;;;;;;;;;;5100338;28;20031;-77
2021/05/17 12:39:18;;;;;;;3.60;0.93;;;;;;;;;;5104711;28;20024;-79
2021/05/17 12:41:46;;;;;;;3.17;1.13;;;;;;;;;;5104567;28;20036;-78
2021/05/17 12:44:31;;;;;;;3.33;1.05;;;;;;;;;;5104320;28;20100;-78
2021/05/17 12:47:05;;;;;;;4.38;1.38;;;;;;;;;;5108225;28;20164;-79
2021/05/17 12:49:50;;;;;;;5.07;3.35;;;;;;;;;;5107972;28;20406;-77
2021/05/17 12:52:43;;;;;;;7.53;5.05;;;;;;;;;;5112195;28;20035;-78
2021/05/17 12:55:10;;;;;;;7.07;4.88;;;;;;;;;;5105111;28;20038;-78
2021/05/17 12:57:45;;;;;;;9.93;6.40;;;;;;;;;;5113604;28;20023;-80
2021/05/17 13:00:12;;;;;;;7.50;2.75;;;;;;;;;;5109965;28;20110;-80
2021/05/17 13:02:38;;;;;;;7.53;2.42;;;;;;;;;;5114249;28;20043;-81
2021/05/17 13:05:06;;;;;;;4.90;0.90;;;;;;;;;;5111363;28;20027;-82
2021/05/17 13:07:32;;;;;;;3.55;1.38;;;;;;;;;;5115197;28;20387;-80
2021/05/17 13:09:58;;;;;;;3.50;1.13;;;;;;;;;;5113620;28;20032;-80
2021/05/17 13:12:25;;;;;;;3.95;1.13;;;;;;;;;;5113477;28;20034;-80
2021/05/17 13:14:51;;;;;;;4.30;0.63;;;;;;;;;;5115189;28;20112;-80
2021/05/17 13:17:17;;;;;;;7.47;0.82;;;;;;;;;;5109620;28;20039;-80
2021/05/17 13:33:23;;;;;;;6.03;1.10;;;;;;;;;;5102206;28;20465;-81
2021/05/17 13:35:54;;;;;;;3.55;0.60;;;;;;;;;;5113361;28;20027;-80
2021/05/17 13:38:20;;;;;;;4.05;1.15;;;;;;;;;;5113542;28;20387;-85
2021/05/17 13:40:46;;;;;;;5.90;0.70;;;;;;;;;;5114762;28;20443;-79
2021/05/17 13:43:12;;;;;;;2.95;0.70;;;;;;;;;;5114516;28;20094;-79
2021/05/17 13:45:39;;;;;;;3.63;2.13;;;;;;;;;;5115049;28;20024;-84
2021/05/17 13:48:05;;;;;;;3.67;2.22;;;;;;;;;;5114748;28;20028;-81
2021/05/17 13:50:32;;;;;;;5.55;1.40;;;;;;;;;;5114310;28;20160;-79
2021/05/17 13:52:58;;;;;;;5.78;0.77;;;;;;;;;;5113604;28;20043;-78
2021/05/17 13:55:24;;;;;;;5.20;0.90;;;;;;;;;;5111168;28;20024;-79
2021/05/17 13:57:51;;;;;;;3.13;1.25;;;;;;;;;;5112752;28;20027;-79
2021/05/17 14:00:18;;;;;;;5.53;1.40;;;;;;;;;;5113367;28;20470;-80
2021/05/17 14:02:44;;;;;;;3.47;0.80;;;;;;;;;;5113042;28;20032;-81
2021/05/17 14:05:11;;;;;;;3.05;0.70;;;;;;;;;;5113053;28;20081;-77
2021/05/17 14:07:37;;;;;;;7.78;1.30;;;;;;;;;;5113400;28;20039;-79
2021/05/17 14:10:04;;;;;;;2.97;1.33;;;;;;;;;;5113362;28;20099;-81
2021/05/17 14:12:30;;;;;;;2.25;0.80;;;;;;;;;;5094762;28;20058;-77
2021/05/17 14:14:56;;;;;;;3.10;0.73;;;;;;;;;;5113047;28;20542;-80
2021/05/17 14:17:22;;;;;;;2.47;0.70;;;;;;;;;;5112888;28;20020;-78
2021/05/17 14:19:48;;;;;;;7.00;1.73;;;;;;;;;;5112965;28;20023;-80
2021/05/17 14:22:15;;;;;;;5.15;2.53;;;;;;;;;;5112240;28;20035;-78
2021/05/17 14:24:41;;;;;;;3.55;1.20;;;;;;;;;;5112713;28;20023;-78
2021/05/17 14:27:07;;;;;;;3.22;1.25;;;;;;;;;;5093557;28;20034;-81
2021/05/17 14:29:34;;;;;;;5.95;0.95;;;;;;;;;;5112530;28;20015;-78
2021/05/17 14:32:01;;;;;;;1.45;0.95;;;;;;;;;;5106993;28;20047;-80
2021/05/17 14:34:27;;;;;;;3.53;0.90;;;;;;;;;;5101520;28;20412;-80
2021/05/17 14:36:54;;;;;;;3.38;1.25;;;;;;;;;;5093112;28;20032;-81
2021/05/17 14:39:20;;;;;;;4.22;1.60;;;;;;;;;;5093542;28;20225;-78
2021/05/17 14:41:46;;;;;;;12.50;3.20;;;;;;;;;;5093187;28;20020;-79
2021/05/17 14:44:12;;;;;;;3.53;2.72;;;;;;;;;;5093297;28;20035;-78
2021/05/17 14:46:38;;;;;;;4.70;3.67;;;;;;;;;;5093447;28;20360;-77
2021/05/17 14:49:04;;;;;;;4.07;2.15;;;;;;;;;;5092553;28;20036;-77
2021/05/17 14:51:31;;;;;;;2.83;1.88;;;;;;;;;;5093489;28;20036;-82
2021/05/17 14:53:57;;;;;;;3.28;1.38;;;;;;;;;;5109376;27;20136;-81
2021/05/17 14:56:24;;;;;;;3.45;1.80;;;;;;;;;;5113335;28;20142;-81
2021/05/17 14:58:50;;;;;;;4.65;1.52;;;;;;;;;;5113478;28;20092;-79
2021/05/17 15:01:16;;;;;;;5.45;1.35;;;;;;;;;;5113478;28;20028;-81
2021/05/17 15:03:44;;;;;;;5.53;2.00;;;;;;;;;;5113434;27;20030;-80
2021/05/17 15:06:11;;;;;;;4.90;2.35;;;;;;;;;;5114355;27;20140;-69
2021/05/17 15:08:37;;;;;;;5.03;2.50;;;;;;;;;;5094985;28;20390;-80
2021/05/17 15:11:03;;;;;;;5.68;2.08;;;;;;;;;;5113048;28;20102;-80
2021/05/17 15:13:29;;;;;;;6.00;1.75;;;;;;;;;;5112243;28;20027;-80
2021/05/17 15:15:55;;;;;;;3.60;1.20;;;;;;;;;;5113124;28;20020;-81
2021/05/17 15:18:21;;;;;;;4.47;1.45;;;;;;;;;;5112889;28;20459;-78
2021/05/17 15:20:48;;;;;;;8.73;1.92;;;;;;;;;;5113254;28;20027;-79
2021/05/17 15:23:24;;;;;;;2.53;1.20;;;;;;;;;;5112736;28;20390;-80
2021/05/17 15:25:51;;;;;;;2.92;1.10;;;;;;;;;;5112905;28;20111;-80
2021/05/17 15:28:17;;;;;;;2.58;1.10;;;;;;;;;;5112161;28;20148;-79
2021/05/17 15:30:43;;;;;;;3.17;0.90;;;;;;;;;;5112959;28;20027;-79
2021/05/17 15:33:09;;;;;;;4.38;1.10;;;;;;;;;;5112146;28;20051;-77
2021/05/17 15:35:36;;;;;;;3.60;1.73;;;;;;;;;;5112641;28;20098;-79
2021/05/17 15:38:03;;;;;;;3.35;1.33;;;;;;;;;;5112011;28;20030;-77
2021/05/17 15:40:29;;;;;;;4.40;1.58;;;;;;;;;;5107582;28;20112;-79
2021/05/17 15:42:55;;;;;;;3.60;1.52;;;;;;;;;;5110331;28;20467;-77
2021/05/17 15:45:24;;;;;;;6.30;1.10;;;;;;;;;;5111902;28;20441;-76
2021/05/17 15:47:50;;;;;;;2.90;0.90;;;;;;;;;;5111886;28;20031;-78
2021/05/17 15:50:16;;;;;;;3.03;1.13;;;;;;;;;;5111685;28;20020;-77